Time;durP1;ratioP1;P1;durP2;ratioP2;P2;SDS_P1;SDS_P2;PMS_P1;PMS_P2;Temp;Humidity;BMP_temperature;BMP_pressure;BME280_temperature;BME280_humidity;BME280_pressure;Samples;Min_cycle;Max_cycle;Signal;HPM_P1;HPM_P2
2022/08/15 00:01:21;;;;;;;4.73;4.33;;;;;;;25.45;43.22;97731.97;5116928;27;41767;-76
2022/08/15 00:03:54;;;;;;;5.27;4.77;;;;;;;25.46;42.90;97733.63;5116519;27;43352;-75
2022/08/15 00:06:24;;;;;;;4.60;4.20;;;;;;;25.46;43.15;97731.75;5131782;27;43224;-76
2022/08/15 00:08:54;;;;;;;4.83;4.43;;;;;;;25.45;42.97;97730.09;5134242;27;40740;-75
2022/08/15 00:11:25;;;;;;;5.03;4.40;;;;;;;25.46;43.24;97742.59;5099323;27;41811;-76
2022/08/15 00:13:57;;;;;;;4.27;3.97;;;;;;;25.45;42.91;97734.66;5114150;27;43721;-76
2022/08/15 00:16:25;;;;;;;4.77;4.37;;;;;;;25.48;43.00;97735.03;5113162;27;42115;-75
2022/08/15 00:18:54;;;;;;;4.20;3.90;;;;;;;25.48;43.05;97740.47;5098454;27;42515;-76
2022/08/15 00:21:22;;;;;;;4.83;4.33;;;;;;;25.29;42.89;97707.03;5134504;27;42678;-75
2022/08/15 00:23:51;;;;;;;4.13;3.80;;;;;;;25.49;43.17;97741.28;5116329;27;42820;-75
2022/08/15 00:26:20;;;;;;;4.90;4.40;;;;;;;25.49;42.93;97742.13;5115998;27;42460;-76
2022/08/15 00:28:47;;;;;;;4.60;4.20;;;;;;;25.49;43.12;97741.28;5098963;27;40383;-76
2022/08/15 00:31:15;;;;;;;4.93;4.53;;;;;;;25.48;43.34;97739.63;5115969;27;42505;-75
2022/08/15 00:33:43;;;;;;;4.97;4.47;;;;;;;25.48;42.89;97742.34;5134369;27;42808;-75
2022/08/15 00:36:15;;;;;;;5.10;4.70;;;;;;;25.48;42.80;97742.34;5098707;27;42195;-75
2022/08/15 00:38:43;;;;;;;4.67;4.27;;;;;;;25.47;42.71;97748.84;5098682;27;40750;-76
2022/08/15 00:44:01;;;;;;;4.80;3.80;;;;;;;25.47;41.72;97749.66;5132133;27;43749;-75
2022/08/15 00:46:30;;;;;;;4.27;3.70;;;;;;;25.45;41.97;97750.94;5115838;27;41986;-75
2022/08/15 00:48:58;;;;;;;4.13;3.73;;;;;;;25.45;41.63;97751.75;5098637;27;39253;-75
2022/08/15 00:51:34;;;;;;;5.17;3.97;;;;;;;25.44;41.51;97750.09;5115853;27;43240;-76
2022/08/15 00:54:08;;;;;;;4.37;3.97;;;;;;;25.44;41.50;97760.94;5098315;27;43214;-76
2022/08/15 00:56:43;;;;;;;3.80;3.50;;;;;;;25.42;41.13;97757.63;5112626;27;42879;-75
2022/08/15 00:59:14;;;;;;;4.20;3.70;;;;;;;25.42;41.37;97760.31;5113983;27;40023;-75
2022/08/15 01:01:42;;;;;;;4.07;3.67;;;;;;;25.36;41.23;97753.88;5115724;27;42112;-76
2022/08/15 01:04:13;;;;;;;4.40;3.60;;;;;;;25.44;40.68;97760.13;5098251;27;41739;-76
2022/08/15 01:06:45;;;;;;;4.07;3.67;;;;;;;25.43;40.76;97759.28;5115472;27;42383;-76
2022/08/15 01:09:14;;;;;;;4.03;3.60;;;;;;;25.46;40.77;97758.03;5113926;27;41700;-76
2022/08/15 01:11:45;;;;;;;3.43;3.13;;;;;;;25.45;40.35;97762.59;5115543;27;41734;-75
2022/08/15 01:14:13;;;;;;;3.97;3.67;;;;;;;25.39;40.05;97756.16;5113701;27;43419;-75
2022/08/15 01:16:41;;;;;;;3.77;3.30;;;;;;;25.46;40.13;97763.44;5115440;27;42277;-76
2022/08/15 01:19:15;;;;;;;3.50;3.20;;;;;;;25.42;40.17;97763.03;5115295;27;40921;-75
2022/08/15 01:22:16;;;;;;;3.73;3.43;;;;;;;25.39;39.89;97766.16;5113990;27;41494;-75
2022/08/15 01:24:58;;;;;;;3.47;3.23;;;;;;;25.36;40.01;97748.47;5098328;27;42046;-76
2022/08/15 01:27:30;;;;;;;3.00;2.80;;;;;;;25.33;40.15;97759.75;5098034;27;43405;-75
2022/08/15 01:30:00;;;;;;;3.07;2.80;;;;;;;25.29;39.65;97753.09;5098541;27;38959;-76
2022/08/15 01:32:28;;;;;;;3.37;3.07;;;;;;;25.29;39.73;97754.97;5114995;27;41709;-76
2022/08/15 01:35:00;;;;;;;3.30;3.00;;;;;;;25.24;39.95;97744.78;5097711;27;42925;-75
2022/08/15 01:37:28;;;;;;;2.93;2.73;;;;;;;25.24;40.12;97752.06;5114718;27;41950;-75
2022/08/15 01:40:03;;;;;;;3.03;2.80;;;;;;;25.19;39.97;97755.44;5115030;27;39909;-76
2022/08/15 01:42:37;;;;;;;3.20;2.90;;;;;;;25.18;39.98;97753.78;5112181;27;41411;-76
2022/08/15 01:45:10;;;;;;;3.07;2.47;;;;;;;25.17;39.60;97746.69;5114733;27;42709;-75
2022/08/15 01:47:46;;;;;;;3.73;2.80;;;;;;;25.14;39.88;97760.66;5097998;27;42308;-75
2022/08/15 01:50:21;;;;;;;2.53;2.33;;;;;;;25.12;39.96;97768.16;5114701;27;39771;-75
2022/08/15 01:52:55;;;;;;;2.93;2.63;;;;;;;25.09;39.58;97768.63;5098060;27;40949;-75
2022/08/15 01:55:29;;;;;;;2.67;2.47;;;;;;;25.09;39.97;97765.91;5097357;27;41659;-75
2022/08/15 01:57:57;;;;;;;3.07;2.87;;;;;;;25.09;39.96;97765.06;5097924;27;41540;-76
2022/08/15 02:00:25;;;;;;;4.67;3.10;;;;;;;25.06;39.98;97760.91;5097630;27;40103;-76
2022/08/15 02:02:54;;;;;;;2.63;2.43;;;;;;;25.00;39.95;97762.59;5114776;27;42575;-76
2022/08/15 02:05:22;;;;;;;3.10;2.80;;;;;;;24.87;39.84;97743.63;5097400;27;42087;-76
2022/08/15 02:07:50;;;;;;;3.37;3.07;;;;;;;24.98;39.85;97766.56;5114629;27;42379;-76
2022/08/15 02:10:18;;;;;;;3.30;3.00;;;;;;;24.97;40.03;97767.63;5097162;27;38794;-75
2022/08/15 02:12:48;;;;;;;3.30;3.03;;;;;;;24.92;39.87;97757.38;5114806;27;42683;-76
2022/08/15 02:15:21;;;;;;;5.27;3.30;;;;;;;24.87;40.07;97757.19;5114664;27;43520;-76
2022/08/15 02:17:49;;;;;;;3.50;3.20;;;;;;;24.83;40.57;97752.41;5114286;27;42249;-75
2022/08/15 02:20:19;;;;;;;3.53;2.80;;;;;;;24.76;40.69;97747.00;5114402;27;39739;-76
2022/08/15 02:22:47;;;;;;;3.80;3.50;;;;;;;24.74;40.52;97750.97;5097109;27;40743;-75
2022/08/15 02:25:16;;;;;;;3.90;3.50;;;;;;;24.68;40.97;97744.53;5114263;27;41767;-76
2022/08/15 02:27:44;;;;;;;3.50;3.20;;;;;;;24.63;41.10;97753.28;5114390;27;42256;-75
2022/08/15 02:30:18;;;;;;;3.80;3.50;;;;;;;24.60;41.69;97748.28;5096524;27;39199;-76
2022/08/15 02:32:46;;;;;;;3.47;3.13;;;;;;;24.57;41.56;97754.16;5110729;27;41604;-76
2022/08/15 02:35:17;;;;;;;3.60;3.37;;;;;;;24.49;41.61;97745.41;5096935;27;41722;-76
2022/08/15 02:37:45;;;;;;;3.30;3.00;;;;;;;24.42;41.46;97742.72;5114130;27;43021;-75
2022/08/15 02:40:16;;;;;;;3.53;3.20;;;;;;;24.48;41.51;97754.59;5096802;27;39226;-75
2022/08/15 02:42:46;;;;;;;3.17;2.90;;;;;;;24.38;41.35;97744.19;5114490;27;41365;-75
2022/08/15 02:45:15;;;;;;;3.07;2.87;;;;;;;24.43;41.24;97757.09;5113690;27;44141;-75
2022/08/15 02:47:44;;;;;;;3.43;3.13;;;;;;;24.40;41.72;97758.34;5113728;27;42558;-76
2022/08/15 02:50:15;;;;;;;3.07;2.77;;;;;;;24.32;41.48;97750.44;5113670;27;41074;-76
2022/08/15 02:52:47;;;;;;;3.00;2.70;;;;;;;24.26;41.93;97751.28;5132591;27;42758;-76
2022/08/15 02:55:15;;;;;;;3.57;3.10;;;;;;;24.23;41.75;97757.13;5097178;27;43165;-76
2022/08/15 02:57:43;;;;;;;3.03;2.80;;;;;;;24.15;41.54;97755.41;5096930;27;42199;-76
2022/08/15 03:00:15;;;;;;;3.50;2.60;;;;;;;24.14;41.60;97747.50;5096643;27;38919;-76
2022/08/15 03:02:54;;;;;;;4.43;2.90;;;;;;;24.08;41.72;97751.06;5110944;27;42505;-75
2022/08/15 03:05:26;;;;;;;3.77;3.40;;;;;;;24.11;41.84;97756.06;5113710;27;42713;-75
2022/08/15 03:07:55;;;;;;;3.27;3.00;;;;;;;24.08;42.14;97751.06;5114051;27;42924;-75
2022/08/15 03:10:23;;;;;;;3.20;2.90;;;;;;;23.93;42.01;97726.91;5113508;27;40924;-76
2022/08/15 03:12:54;;;;;;;3.27;2.97;;;;;;;24.02;42.22;97741.06;5113674;27;42523;-76
2022/08/15 03:15:25;;;;;;;2.80;2.60;;;;;;;23.92;41.75;97722.53;5096601;27;41772;-75
2022/08/15 03:17:54;;;;;;;3.37;3.07;;;;;;;23.97;41.88;97739.00;5113302;27;42258;-76
2022/08/15 03:20:23;;;;;;;3.07;2.77;;;;;;;23.93;41.87;97746.69;5131841;27;40750;-76
2022/08/15 03:22:53;;;;;;;2.87;2.67;;;;;;;23.64;42.15;97690.28;5113553;27;41763;-76
2022/08/15 03:25:26;;;;;;;2.73;2.53;;;;;;;23.86;42.17;97740.41;5096472;27;42980;-76
2022/08/15 03:27:56;;;;;;;2.83;2.63;;;;;;;23.79;42.14;97728.78;5096522;27;42661;-75
2022/08/15 03:30:23;;;;;;;3.23;2.97;;;;;;;23.81;42.55;97737.53;5096048;27;40282;-76
2022/08/15 03:32:59;;;;;;;3.00;2.57;;;;;;;23.79;42.69;97728.78;5096786;27;41190;-75
2022/08/15 03:35:38;;;;;;;3.10;2.90;;;;;;;23.77;42.60;97730.84;5113245;27;44501;-76
2022/08/15 03:38:07;;;;;;;3.33;3.03;;;;;;;23.70;42.24;97731.91;5095728;27;40896;-76
2022/08/15 03:40:38;;;;;;;3.00;2.80;;;;;;;23.72;42.57;97727.97;5096677;27;41014;-75
2022/08/15 03:43:11;;;;;;;4.30;3.03;;;;;;;23.74;42.74;97736.66;5113248;27;42737;-76
2022/08/15 03:45:45;;;;;;;3.33;3.03;;;;;;;23.74;42.41;97733.16;5112598;27;43655;-76
2022/08/15 03:48:15;;;;;;;3.03;2.80;;;;;;;23.74;42.54;97733.97;5099332;27;42263;-75
2022/08/15 03:50:44;;;;;;;2.80;2.57;;;;;;;23.77;42.86;97743.53;5116590;27;40188;-75
2022/08/15 03:53:12;;;;;;;3.20;2.90;;;;;;;23.70;42.87;97732.72;5116554;27;42761;-76
2022/08/15 03:55:42;;;;;;;3.47;3.17;;;;;;;23.75;42.83;97737.50;5099473;27;44294;-76
2022/08/15 03:58:10;;;;;;;3.33;3.03;;;;;;;23.81;43.23;97747.50;5116673;27;43196;-76
2022/08/15 04:00:44;;;;;;;2.87;2.63;;;;;;;23.84;42.85;97747.09;5099452;27;38929;-75
2022/08/15 04:03:13;;;;;;;4.00;3.10;;;;;;;23.85;43.15;97754.16;5113208;27;42698;-76
2022/08/15 04:05:49;;;;;;;2.83;2.63;;;;;;;23.87;42.68;97758.31;5116424;27;43649;-75
2022/08/15 04:08:20;;;;;;;3.13;2.83;;;;;;;23.90;43.26;97765.19;5099035;27;41110;-76
2022/08/15 04:10:50;;;;;;;3.60;2.90;;;;;;;23.93;43.27;97754.78;5099575;27;39035;-75
2022/08/15 04:13:24;;;;;;;4.33;2.63;;;;;;;23.95;43.47;97755.41;5116571;27;41343;-76
2022/08/15 04:15:55;;;;;;;3.53;3.03;;;;;;;23.92;43.20;97749.59;5113257;27;43741;-75
2022/08/15 04:18:24;;;;;;;2.60;2.40;;;;;;;24.02;43.40;97765.41;5098481;27;41233;-76
2022/08/15 04:20:58;;;;;;;2.73;2.53;;;;;;;23.95;43.37;97751.88;5099219;27;39211;-75
2022/08/15 04:23:26;;;;;;;2.87;2.33;;;;;;;24.09;42.80;97777.06;5099245;27;41012;-75
2022/08/15 04:25:55;;;;;;;2.60;2.40;;;;;;;24.10;43.11;97776.03;5116107;27;42778;-76
2022/08/15 04:28:29;;;;;;;2.60;2.40;;;;;;;24.15;42.86;97792.44;5098680;27;41257;-76
2022/08/15 04:30:58;;;;;;;2.70;2.50;;;;;;;24.15;42.66;97792.44;5113066;27;41659;-75
2022/08/15 04:33:29;;;;;;;2.97;2.77;;;;;;;24.17;42.97;97806.59;5099196;27;40760;-75
2022/08/15 04:36:00;;;;;;;2.80;2.60;;;;;;;24.10;43.12;97795.81;5098734;27;41721;-75
2022/08/15 04:38:32;;;;;;;5.10;3.20;;;;;;;24.20;43.41;97806.19;5099063;27;41433;-75
2022/08/15 04:41:03;;;;;;;2.37;2.20;;;;;;;24.13;43.54;97805.34;5098901;27;38885;-75
2022/08/15 04:43:33;;;;;;;2.87;2.40;;;;;;;24.19;43.56;97805.38;5098759;27;40872;-76
2022/08/15 04:46:01;;;;;;;6.00;2.80;;;;;;;24.09;43.68;97779.78;5115860;27;42803;-76
2022/08/15 04:48:30;;;;;;;2.73;2.50;;;;;;;24.21;44.09;97797.03;5098631;27;42581;-75
2022/08/15 04:51:01;;;;;;;4.67;2.77;;;;;;;24.22;43.92;97796.88;5098634;27;40045;-76
2022/08/15 04:53:34;;;;;;;3.53;2.53;;;;;;;24.24;44.18;97797.47;5098494;27;40963;-75
2022/08/15 04:56:07;;;;;;;3.10;2.90;;;;;;;24.25;44.57;97795.59;5098155;27;42871;-76
2022/08/15 04:58:38;;;;;;;3.93;2.80;;;;;;;24.27;44.17;97794.34;5098370;27;42324;-75
2022/08/15 05:01:13;;;;;;;3.17;2.83;;;;;;;24.29;44.54;97799.56;5115963;27;39107;-75
2022/08/15 05:03:47;;;;;;;2.60;2.40;;;;;;;24.28;44.79;97787.91;5115521;27;41135;-76
2022/08/15 05:06:18;;;;;;;2.87;2.43;;;;;;;24.32;44.44;97791.03;5115132;27;43531;-76
2022/08/15 05:08:45;;;;;;;2.60;2.40;;;;;;;24.35;44.63;97793.34;5098711;27;41269;-75
2022/08/15 05:11:22;;;;;;;2.70;2.50;;;;;;;24.39;44.82;97794.56;5098459;27;38874;-76
2022/08/15 05:13:57;;;;;;;2.93;2.67;;;;;;;24.38;44.77;97790.19;5113271;27;41635;-75
2022/08/15 05:16:32;;;;;;;3.47;2.50;;;;;;;24.39;45.21;97789.16;5098087;27;41687;-75
2022/08/15 05:19:02;;;;;;;3.50;2.33;;;;;;;24.38;45.54;97790.19;5097396;27;44174;-76
2022/08/15 05:21:33;;;;;;;2.90;2.70;;;;;;;24.39;46.27;97793.72;5098371;27;40929;-76
2022/08/15 05:24:01;;;;;;;3.03;2.73;;;;;;;24.38;46.73;97786.66;5098165;27;42022;-75
2022/08/15 05:26:30;;;;;;;3.93;2.20;;;;;;;24.32;46.54;97782.91;5115160;27;42868;-76
2022/08/15 05:28:58;;;;;;;4.50;2.83;;;;;;;24.35;47.65;97782.50;5097772;27;41104;-75
2022/08/15 05:31:29;;;;;;;3.03;2.73;;;;;;;24.36;48.13;97778.72;5115096;27;41314;-75
2022/08/15 05:34:00;;;;;;;3.50;2.63;;;;;;;24.34;48.27;97780.84;5098199;27;42118;-76
2022/08/15 05:36:35;;;;;;;3.07;2.30;;;;;;;24.35;48.85;97771.69;5097717;27;41695;-75
2022/08/15 05:39:18;;;;;;;2.80;2.50;;;;;;;24.34;49.13;97775.44;5113001;27;42294;-75
2022/08/15 05:41:56;;;;;;;3.73;2.93;;;;;;;24.27;49.53;97758.34;5097891;27;40029;-75
2022/08/15 05:44:31;;;;;;;3.03;2.47;;;;;;;24.38;49.24;97773.13;5113422;27;42431;-75
2022/08/15 05:47:11;;;;;;;2.90;2.70;;;;;;;24.36;49.87;97773.31;5111876;27;43579;-76
2022/08/15 05:49:50;;;;;;;3.87;3.03;;;;;;;24.26;49.95;97746.69;5113978;27;43203;-75
2022/08/15 05:52:31;;;;;;;3.27;2.70;;;;;;;24.43;50.43;97776.88;5098071;27;40006;-75
2022/08/15 05:55:12;;;;;;;4.07;2.83;;;;;;;24.37;50.34;97756.03;5097865;27;40491;-75
2022/08/15 05:57:56;;;;;;;2.97;2.50;;;;;;;24.56;49.82;97778.72;5111869;27;42767;-75
2022/08/15 06:00:27;;;;;;;3.73;3.10;;;;;;;24.59;49.92;97771.03;5097582;27;42670;-75
2022/08/15 06:02:59;;;;;;;3.37;2.67;;;;;;;24.65;50.39;97777.44;5097557;27;39235;-75
2022/08/15 06:05:31;;;;;;;3.13;2.73;;;;;;;24.66;50.30;97774.53;5097440;27;42145;-75
2022/08/15 06:08:07;;;;;;;3.70;2.80;;;;;;;24.72;50.25;97782.88;5110843;27;42726;-75
2022/08/15 06:10:39;;;;;;;2.73;2.30;;;;;;;24.77;50.01;97785.75;5097616;27;42289;-76
2022/08/15 06:13:14;;;;;;;2.73;2.53;;;;;;;24.82;49.72;97770.56;5097371;27;41267;-76
2022/08/15 06:15:50;;;;;;;3.20;2.27;;;;;;;24.88;49.42;97774.25;5114926;27;41342;-75
2022/08/15 06:18:20;;;;;;;3.83;2.80;;;;;;;24.95;49.70;97777.84;5096555;27;42258;-75
2022/08/15 06:20:57;;;;;;;2.77;2.53;;;;;;;25.00;49.76;97776.13;5097242;27;42558;-75
2022/08/15 06:23:39;;;;;;;2.90;2.60;;;;;;;24.97;49.66;97759.50;5111518;27;40880;-75
2022/08/15 06:26:22;;;;;;;3.97;3.50;;;;;;;25.13;49.33;97780.66;5097246;27;41572;-75
2022/08/15 06:29:04;;;;;;;2.50;2.30;;;;;;;25.21;49.68;97788.56;5112188;27;42793;-75
2022/08/15 06:31:37;;;;;;;2.73;2.50;;;;;;;25.26;49.04;97794.16;5097708;27;41126;-75
2022/08/15 06:34:17;;;;;;;3.17;2.60;;;;;;;25.35;48.91;97801.00;5112515;27;40043;-75
2022/08/15 06:36:54;;;;;;;4.70;2.70;;;;;;;25.37;49.09;97798.91;5110881;27;41494;-75
2022/08/15 06:39:33;;;;;;;2.60;2.37;;;;;;;25.50;48.87;97808.84;5112698;27;42711;-75
2022/08/15 06:42:12;;;;;;;4.87;3.10;;;;;;;25.61;48.49;97815.50;5097019;27;41051;-75
2022/08/15 06:44:50;;;;;;;3.63;2.70;;;;;;;25.69;48.51;97817.97;5113251;27;40046;-75
2022/08/15 06:47:21;;;;;;;3.73;3.10;;;;;;;25.74;48.60;97807.31;5111010;27;41920;-75
2022/08/15 06:49:54;;;;;;;3.00;2.70;;;;;;;25.85;48.56;97817.44;5113435;27;42902;-75
2022/08/15 06:52:22;;;;;;;3.13;2.87;;;;;;;25.91;48.43;97822.03;5110908;27;42346;-75
2022/08/15 06:54:51;;;;;;;4.33;2.50;;;;;;;26.08;48.05;97817.75;5132491;27;40009;-75
2022/08/15 06:57:33;;;;;;;4.83;2.70;;;;;;;26.37;47.74;97831.72;5096921;27;43500;-77
2022/08/15 07:00:09;;;;;;;3.30;2.67;;;;;;;26.56;46.99;97838.91;5096635;27;42896;-75
2022/08/15 07:02:58;;;;;;;3.10;2.73;;;;;;;26.82;46.71;97833.22;5110564;27;42767;-75
2022/08/15 07:05:32;;;;;;;3.30;2.77;;;;;;;27.05;46.41;97839.91;5113864;27;40923;-75
2022/08/15 07:08:06;;;;;;;3.50;3.00;;;;;;;27.27;45.76;97843.84;5110620;27;42678;-75
2022/08/15 07:10:43;;;;;;;3.43;2.57;;;;;;;27.58;45.58;97829.25;5110946;27;42957;-76
2022/08/15 07:13:18;;;;;;;2.90;2.70;;;;;;;27.85;44.84;97840.59;5110317;27;42264;-75
2022/08/15 07:15:55;;;;;;;3.10;2.90;;;;;;;28.18;44.44;97846.44;5110775;27;40777;-75
2022/08/15 07:18:34;;;;;;;3.50;2.37;;;;;;;28.47;43.97;97843.88;5112108;27;42705;-76
2022/08/15 07:21:07;;;;;;;4.87;3.17;;;;;;;28.75;43.55;97843.22;5113936;27;42825;-76
2022/08/15 07:23:37;;;;;;;2.47;2.27;;;;;;;28.94;42.99;97850.22;5117011;27;42175;-75
2022/08/15 07:26:11;;;;;;;3.63;2.67;;;;;;;29.02;42.36;97844.41;5099985;27;38551;-76
2022/08/15 07:28:50;;;;;;;3.03;2.67;;;;;;;29.03;42.23;97842.53;5114585;27;41655;-75
2022/08/15 07:31:25;;;;;;;3.30;2.40;;;;;;;28.98;41.98;97845.97;5114000;27;43735;-75
2022/08/15 07:33:56;;;;;;;3.83;3.07;;;;;;;28.96;42.12;97848.09;5099582;27;41111;-76
2022/08/15 07:36:28;;;;;;;2.83;2.53;;;;;;;28.98;42.21;97842.41;5113900;27;39995;-76
2022/08/15 07:38:58;;;;;;;2.90;2.40;;;;;;;28.94;42.13;97845.59;5114803;27;42786;-75
2022/08/15 07:41:30;;;;;;;3.20;2.90;;;;;;;29.05;41.75;97846.69;5116837;27;44028;-75
2022/08/15 07:44:01;;;;;;;2.50;2.30;;;;;;;29.17;41.56;97849.41;5114770;27;42626;-76
2022/08/15 07:46:39;;;;;;;3.10;2.80;;;;;;;29.26;41.23;97850.69;5116911;27;40056;-75
2022/08/15 07:49:16;;;;;;;4.13;2.47;;;;;;;29.27;41.31;97849.63;5114929;27;41576;-75
2022/08/15 07:51:48;;;;;;;2.90;2.60;;;;;;;29.20;40.97;97851.63;5113581;27;42524;-75
2022/08/15 07:54:31;;;;;;;2.97;2.53;;;;;;;29.15;41.14;97852.34;5099460;27;41196;-75
2022/08/15 07:57:03;;;;;;;3.20;2.90;;;;;;;29.13;41.22;97856.38;5116744;27;40872;-75
2022/08/15 07:59:35;;;;;;;3.33;2.80;;;;;;;29.21;41.43;97858.72;5099291;27;43186;-75
2022/08/15 08:02:21;;;;;;;3.33;2.63;;;;;;;29.33;40.95;97872.34;5113451;27;43803;-75
2022/08/15 08:04:50;;;;;;;3.20;2.83;;;;;;;29.44;40.88;97869.63;5115790;27;43195;-75
2022/08/15 08:07:25;;;;;;;4.13;2.90;;;;;;;29.50;40.48;97855.03;5116528;27;40202;-75
2022/08/15 08:10:00;;;;;;;2.93;2.70;;;;;;;29.73;40.07;97875.16;5099093;27;42064;-75
2022/08/15 08:12:35;;;;;;;3.93;3.03;;;;;;;29.89;40.52;97868.94;5113025;27;42837;-76
2022/08/15 08:15:17;;;;;;;3.33;3.00;;;;;;;30.11;39.91;97878.13;5115797;27;43162;-75
2022/08/15 08:17:50;;;;;;;3.80;2.90;;;;;;;30.26;39.31;97880.31;5099602;27;39183;-75
2022/08/15 08:20:28;;;;;;;3.00;2.80;;;;;;;30.54;39.24;97893.13;5099036;27;41826;-75
2022/08/15 08:23:01;;;;;;;3.93;2.93;;;;;;;30.86;38.97;97896.13;5098920;27;41611;-75
2022/08/15 08:25:36;;;;;;;3.47;3.17;;;;;;;31.17;38.35;97908.38;5116151;27;42414;-75
2022/08/15 08:28:15;;;;;;;3.27;2.97;;;;;;;31.46;37.69;97901.69;5113129;27;40965;-75
2022/08/15 08:30:52;;;;;;;4.20;2.50;;;;;;;31.62;37.34;97906.28;5112347;27;41537;-75
2022/08/15 08:33:29;;;;;;;3.07;2.87;;;;;;;31.95;37.00;97920.94;5113209;27;43723;-75
2022/08/15 08:36:09;;;;;;;2.80;2.60;;;;;;;32.26;36.38;97909.28;5131272;27;43067;-76
2022/08/15 08:38:44;;;;;;;3.07;2.27;;;;;;;32.32;36.21;97919.22;5113407;27;40783;-75
2022/08/15 08:41:29;;;;;;;2.77;2.53;;;;;;;32.35;36.02;97915.97;5112971;27;42557;-75
2022/08/15 08:44:10;;;;;;;3.10;2.80;;;;;;;32.34;35.99;97918.97;5115621;27;43241;-75
2022/08/15 08:46:55;;;;;;;2.40;2.20;;;;;;;32.44;35.73;97905.34;5115414;27;42317;-75
2022/08/15 08:49:31;;;;;;;3.00;2.70;;;;;;;32.71;35.35;97919.03;5115429;27;42826;-75
2022/08/15 08:52:10;;;;;;;4.20;2.33;;;;;;;33.66;34.22;97923.59;5098527;27;40417;-75
2022/08/15 08:54:45;;;;;;;2.50;2.30;;;;;;;35.19;32.45;97933.88;5114480;27;42710;-76
2022/08/15 08:57:18;;;;;;;3.33;2.53;;;;;;;35.95;31.25;97944.78;5098307;27;42349;-75
2022/08/15 08:59:55;;;;;;;2.40;2.17;;;;;;;36.23;30.38;97964.50;5132961;27;40951;-75
2022/08/15 09:02:27;;;;;;;3.10;2.27;;;;;;;36.30;30.15;97965.03;5115287;27;42125;-76
2022/08/15 09:05:01;;;;;;;2.40;2.20;;;;;;;36.12;30.25;97977.50;5115019;27;42852;-76
2022/08/15 09:07:32;;;;;;;2.63;2.30;;;;;;;35.81;30.71;97973.22;5130595;27;41980;-75
2022/08/15 09:10:04;;;;;;;2.93;2.17;;;;;;;35.55;31.12;97966.91;5114705;27;39694;-76
2022/08/15 09:15:27;;;;;;;2.50;2.07;;;;;;;35.05;32.15;97952.06;5133501;27;43466;-76
2022/08/15 09:18:00;;;;;;;2.47;2.27;;;;;;;34.74;32.28;97944.88;5112428;27;43347;-76
2022/08/15 09:20:33;;;;;;;2.13;2.03;;;;;;;34.48;32.31;97949.50;5115117;27;39984;-76
2022/08/15 09:23:01;;;;;;;2.73;2.10;;;;;;;34.19;32.67;97954.63;5130339;27;41858;-76
2022/08/15 09:25:30;;;;;;;2.00;1.90;;;;;;;34.07;32.95;97959.53;5132315;27;43769;-76
2022/08/15 09:28:05;;;;;;;1.90;1.80;;;;;;;34.28;32.64;97955.78;5114010;27;43257;-75
2022/08/15 09:30:35;;;;;;;4.20;1.50;;;;;;;34.49;32.32;97948.41;5113945;27;40040;-76
2022/08/15 09:33:15;;;;;;;1.73;1.63;;;;;;;34.70;32.41;97963.03;5113911;27;43347;-76
2022/08/15 09:36:01;;;;;;;1.73;1.63;;;;;;;34.68;31.85;97948.72;5129327;27;42989;-76
2022/08/15 09:38:39;;;;;;;2.40;1.73;;;;;;;34.58;32.01;97958.59;5096269;27;41379;-75
2022/08/15 09:41:35;;;;;;;2.13;1.70;;;;;;;34.38;32.32;97954.97;5114130;27;39969;-75
2022/08/15 09:44:32;;;;;;;1.73;1.63;;;;;;;34.20;32.08;97959.84;5111218;27;42946;-75
2022/08/15 09:47:35;;;;;;;1.80;1.70;;;;;;;34.16;32.07;97961.47;5093302;27;42851;-75
2022/08/15 09:50:23;;;;;;;2.43;2.10;;;;;;;34.29;31.99;97962.09;5124973;27;42303;-75
2022/08/15 09:53:03;;;;;;;2.33;1.87;;;;;;;34.30;32.02;97963.75;5113578;27;41001;-75
2022/08/15 09:55:42;;;;;;;1.90;1.80;;;;;;;34.06;32.15;97958.69;5113412;27;43641;-75
2022/08/15 09:58:17;;;;;;;2.20;2.00;;;;;;;33.88;32.45;97951.75;5096174;27;43231;-75
2022/08/15 10:00:58;;;;;;;2.10;1.87;;;;;;;33.98;32.66;97961.16;5128856;27;42186;-76
2022/08/15 10:03:50;;;;;;;2.10;2.00;;;;;;;33.86;31.85;97958.63;5110792;27;40875;-73
2022/08/15 10:06:23;;;;;;;1.87;1.77;;;;;;;33.57;32.45;97955.41;5112943;27;42102;-75
2022/08/15 10:09:28;;;;;;;2.10;2.00;;;;;;;33.59;32.39;97953.22;5113231;27;41496;-76
2022/08/15 10:12:06;;;;;;;2.53;2.20;;;;;;;33.71;32.34;97951.09;5080103;27;41047;-75
2022/08/15 10:14:49;;;;;;;1.83;1.73;;;;;;;33.87;32.31;97957.53;5112848;27;39921;-75
2022/08/15 10:17:27;;;;;;;2.30;2.10;;;;;;;34.30;31.51;97959.09;5113058;27;42601;-75
2022/08/15 10:19:56;;;;;;;2.70;1.80;;;;;;;34.70;31.14;97952.03;5130978;27;42945;-77
2022/08/15 10:22:51;;;;;;;2.20;2.10;;;;;;;34.83;30.64;97957.84;5113142;27;43268;-75
2022/08/15 10:25:28;;;;;;;2.23;2.03;;;;;;;35.07;30.43;97957.28;5131384;27;40294;-76
2022/08/15 10:28:00;;;;;;;2.03;1.93;;;;;;;35.23;30.30;97968.03;5110348;27;41940;-75
2022/08/15 10:30:31;;;;;;;2.30;2.20;;;;;;;35.39;29.86;97957.84;5113074;27;43003;-76
2022/08/15 10:33:00;;;;;;;3.87;2.30;;;;;;;35.66;29.71;97960.25;5112919;27;41275;-76
2022/08/15 10:35:35;;;;;;;2.47;2.03;;;;;;;36.15;29.40;97962.31;5131533;27;41958;-76
2022/08/15 10:38:07;;;;;;;2.60;1.97;;;;;;;36.62;28.31;97968.16;5096168;27;41578;-75
2022/08/15 10:40:48;;;;;;;2.20;2.00;;;;;;;36.69;27.89;97970.59;5113249;27;41463;-74
2022/08/15 10:43:39;;;;;;;2.20;1.97;;;;;;;36.48;28.15;97966.31;5128762;27;41952;-76
2022/08/15 10:46:17;;;;;;;2.73;2.20;;;;;;;36.56;27.91;97962.97;5113336;27;38961;-76
2022/08/15 10:48:57;;;;;;;3.03;1.97;;;;;;;36.64;28.24;97963.19;5129484;27;41707;-76
2022/08/15 10:51:44;;;;;;;2.30;2.10;;;;;;;37.31;27.36;97966.31;5096246;27;42706;-75
2022/08/15 10:54:26;;;;;;;1.97;1.87;;;;;;;37.03;26.98;97970.66;5131482;27;42586;-76
2022/08/15 10:56:56;;;;;;;2.13;1.93;;;;;;;37.61;26.69;97967.94;5113920;27;40074;-75
2022/08/15 10:59:28;;;;;;;2.20;2.00;;;;;;;37.72;26.20;97964.78;5116431;27;41378;-73
2022/08/15 11:02:07;;;;;;;2.43;1.87;;;;;;;37.84;26.09;97963.56;5113286;27;42921;-74
2022/08/15 11:04:37;;;;;;;2.10;2.00;;;;;;;37.66;26.28;97962.38;5133667;27;42384;-74
2022/08/15 11:07:18;;;;;;;1.87;1.77;;;;;;;37.36;26.66;97960.72;5099052;27;40243;-74
2022/08/15 11:09:55;;;;;;;1.90;1.80;;;;;;;36.77;27.05;97952.63;5115451;27;41634;-75
2022/08/15 11:12:27;;;;;;;1.93;1.83;;;;;;;36.39;27.70;97946.78;5099036;27;43524;-75
2022/08/15 11:15:00;;;;;;;1.90;1.80;;;;;;;36.78;27.20;97959.81;5115408;27;42132;-75
2022/08/15 11:17:33;;;;;;;2.17;2.07;;;;;;;37.97;25.51;97958.16;5113245;27;39997;-76
2022/08/15 11:20:09;;;;;;;1.90;1.80;;;;;;;38.79;24.47;97967.03;5115862;27;41737;-75
2022/08/15 11:22:39;;;;;;;2.10;1.90;;;;;;;40.60;22.60;97971.44;5113468;27;42640;-75
2022/08/15 11:25:13;;;;;;;1.67;1.58;;;;;;;42.10;21.31;97972.66;5116544;27;42447;-75
2022/08/15 11:27:41;;;;;;;1.90;1.77;;;;;;;42.87;20.34;97977.59;5100540;27;40191;-75
2022/08/15 11:30:21;;;;;;;2.38;2.17;;;;;;;42.41;20.46;97974.56;5116854;27;41521;-76
2022/08/15 11:32:50;;;;;;;2.03;1.92;;;;;;;41.69;20.47;97964.59;5132384;27;42715;-75
2022/08/15 11:35:22;;;;;;;2.38;1.45;;;;;;;41.32;21.02;97976.13;5116715;27;42343;-75
2022/08/15 11:37:53;;;;;;;1.98;1.88;;;;;;;41.67;20.89;97972.44;5114054;27;40944;-75
2022/08/15 11:40:28;;;;;;;1.70;1.60;;;;;;;41.99;20.07;97971.31;5117030;27;40716;-76
2022/08/15 11:42:58;;;;;;;1.70;1.60;;;;;;;42.43;19.82;97967.50;5116770;27;41676;-74
2022/08/15 11:45:31;;;;;;;1.50;1.40;;;;;;;42.97;19.13;97971.69;5099566;27;42334;-76
2022/08/15 11:48:00;;;;;;;2.00;1.90;;;;;;;43.38;18.14;97978.72;5113842;27;39995;-75
2022/08/15 11:50:30;;;;;;;2.35;1.75;;;;;;;43.62;18.41;97979.00;5116056;27;40634;-75
2022/08/15 11:53:01;;;;;;;1.77;1.67;;;;;;;43.93;17.81;97983.47;5116327;27;42791;-76
2022/08/15 11:55:45;;;;;;;1.30;1.30;;;;;;;44.23;17.41;97985.16;5116170;27;43773;-76
2022/08/15 11:58:28;;;;;;;1.65;1.55;;;;;;;44.06;17.24;97979.66;5116289;27;41787;-76
2022/08/15 12:00:58;;;;;;;1.33;1.30;;;;;;;44.55;17.18;97986.47;5099420;27;42469;-75
2022/08/15 12:03:31;;;;;;;2.13;1.63;;;;;;;45.43;16.61;97974.22;5116261;27;41620;-76
2022/08/15 12:06:18;;;;;;;2.88;1.42;;;;;;;45.00;17.00;97980.25;5112237;27;42953;-76
2022/08/15 12:08:48;;;;;;;1.48;1.38;;;;;;;44.10;17.20;97969.47;5116618;27;39984;-76
2022/08/15 12:11:20;;;;;;;1.40;1.33;;;;;;;42.92;18.13;97977.41;5099203;27;43298;-75